UAL9744 KABQ-KLAS
Flight info
| Callsign | UAL9744 |
|---|---|
| Flight time | N/A |
| Altitude | 32000 |
| Route | RDRNR3 GUP HAHAA RKSTR4 |
| Aircraft | A320/M-SDE3FGHIRWY/LB1 |
Departure
| Time | 2026-05-04 01:23 |
|---|---|
| Airport | Albuquerque International Sunport (KABQ) |
Arrival
| Time | N/A |
|---|---|
| Airport | Harry Reid International Airport (KLAS) |
| Time | Latitude | Longitude | Altitude | Speed | Heading |
|---|---|---|---|---|---|
| 2026-05-04 00:49 | 35.04687 | -106.61642 | 5333 ft | 0 kts | 11° |
| 2026-05-04 01:10 | 35.04682 | -106.61643 | 5334 ft | 3 kts | 11° |
| 2026-05-04 01:10 | 35.04659 | -106.61647 | 5319 ft | 3 kts | 1° |
| 2026-05-04 01:10 | 35.04637 | -106.61645 | 5320 ft | 3 kts | 331° |
| 2026-05-04 01:11 | 35.04626 | -106.61630 | 5317 ft | 2 kts | 270° |
| 2026-05-04 01:11 | 35.04626 | -106.61629 | 5317 ft | 0 kts | 270° |
| 2026-05-04 01:19 | 35.04626 | -106.61676 | 5328 ft | 11 kts | 269° |
| 2026-05-04 01:20 | 35.04610 | -106.61737 | 5323 ft | 10 kts | 226° |
| 2026-05-04 01:20 | 35.04559 | -106.61830 | 5328 ft | 16 kts | 266° |
| 2026-05-04 01:20 | 35.04559 | -106.61977 | 5326 ft | 17 kts | 271° |
| 2026-05-04 01:20 | 35.04560 | -106.62055 | 5326 ft | 0 kts | 271° |
| 2026-05-04 01:21 | 35.04560 | -106.62068 | 5326 ft | 2 kts | 268° |
| 2026-05-04 01:21 | 35.04550 | -106.62116 | 5319 ft | 10 kts | 243° |
| 2026-05-04 01:21 | 35.04523 | -106.62140 | 5332 ft | 0 kts | 192° |
| 2026-05-04 01:21 | 35.04522 | -106.62140 | 5332 ft | 1 kts | 190° |
| 2026-05-04 01:22 | 35.04479 | -106.62139 | 5331 ft | 10 kts | 173° |
| 2026-05-04 01:22 | 35.04431 | -106.62074 | 5334 ft | 12 kts | 91° |
| 2026-05-04 01:22 | 35.04438 | -106.61956 | 5329 ft | 17 kts | 86° |
| 2026-05-04 01:22 | 35.04439 | -106.61896 | 5331 ft | 10 kts | 92° |
| 2026-05-04 01:23 | 35.04429 | -106.61575 | 5321 ft | 81 kts | 92° |
| 2026-05-04 01:23 | 35.04418 | -106.60522 | 5331 ft | 162 kts | 91° |
| 2026-05-04 01:23 | 35.04433 | -106.58955 | 5876 ft | 192 kts | 92° |
| 2026-05-04 01:23 | 35.04422 | -106.57322 | 6968 ft | 192 kts | 96° |
| 2026-05-04 01:24 | 35.04367 | -106.55623 | 7839 ft | 212 kts | 97° |
| 2026-05-04 01:24 | 35.04367 | -106.53718 | 8582 ft | 238 kts | 82° |
| 2026-05-04 01:24 | 35.05165 | -106.51841 | 9082 ft | 267 kts | 42° |
| 2026-05-04 01:24 | 35.06851 | -106.50763 | 9682 ft | 287 kts | 7° |
| 2026-05-04 01:25 | 35.08823 | -106.50988 | 10424 ft | 293 kts | 333° |
| 2026-05-04 01:25 | 35.10430 | -106.52540 | 11440 ft | 291 kts | 302° |
| 2026-05-04 01:25 | 35.11184 | -106.54888 | 11950 ft | 310 kts | 274° |
| 2026-05-04 01:25 | 35.10917 | -106.57557 | 12676 ft | 324 kts | 256° |
| 2026-05-04 01:26 | 35.10376 | -106.60251 | 13639 ft | 330 kts | 257° |
| 2026-05-04 01:26 | 35.09823 | -106.62983 | 14572 ft | 334 kts | 257° |
| 2026-05-04 01:26 | 35.09259 | -106.65761 | 15482 ft | 338 kts | 257° |
| 2026-05-04 01:26 | 35.08858 | -106.68591 | 16353 ft | 342 kts | 265° |
| 2026-05-04 01:27 | 35.08765 | -106.71508 | 17255 ft | 346 kts | 270° |
| 2026-05-04 01:27 | 35.08846 | -106.74462 | 18168 ft | 349 kts | 272° |
| 2026-05-04 01:27 | 35.09207 | -106.77409 | 18995 ft | 354 kts | 283° |
| 2026-05-04 01:27 | 35.09805 | -106.80336 | 19686 ft | 356 kts | 282° |
| 2026-05-04 01:28 | 35.10328 | -106.83286 | 19954 ft | 355 kts | 280° |
| 2026-05-04 01:28 | 35.10790 | -106.86250 | 20052 ft | 354 kts | 279° |
| 2026-05-04 01:28 | 35.11212 | -106.89177 | 19888 ft | 354 kts | 278° |
| 2026-05-04 01:28 | 35.11633 | -106.92148 | 19890 ft | 353 kts | 279° |
| 2026-05-04 01:29 | 35.12056 | -106.95094 | 19888 ft | 353 kts | 279° |
| 2026-05-04 01:29 | 35.12493 | -106.98071 | 20279 ft | 360 kts | 279° |
| 2026-05-04 01:29 | 35.12940 | -107.01073 | 21284 ft | 360 kts | 280° |
| 2026-05-04 01:29 | 35.13791 | -107.03962 | 22181 ft | 366 kts | 296° |
| 2026-05-04 01:30 | 35.15114 | -107.06631 | 23060 ft | 368 kts | 298° |
| 2026-05-04 01:30 | 35.16480 | -107.09291 | 23833 ft | 370 kts | 298° |
| 2026-05-04 01:30 | 35.17861 | -107.11955 | 24539 ft | 372 kts | 299° |
| 2026-05-04 01:30 | 35.19255 | -107.14619 | 25235 ft | 372 kts | 299° |
| 2026-05-04 01:31 | 35.20663 | -107.17290 | 25932 ft | 373 kts | 299° |
| 2026-05-04 01:31 | 35.22082 | -107.19953 | 26570 ft | 374 kts | 299° |
| 2026-05-04 01:31 | 35.23511 | -107.22629 | 27219 ft | 375 kts | 298° |
| 2026-05-04 01:31 | 35.24946 | -107.25300 | 27767 ft | 376 kts | 299° |
| 2026-05-04 01:32 | 35.26366 | -107.27911 | 27881 ft | 370 kts | 299° |
| 2026-05-04 01:32 | 35.27804 | -107.30535 | 27902 ft | 370 kts | 299° |
| 2026-05-04 01:32 | 35.29237 | -107.33143 | 27924 ft | 369 kts | 299° |
| 2026-05-04 01:32 | 35.30666 | -107.35743 | 27923 ft | 369 kts | 299° |
| 2026-05-04 01:33 | 35.32095 | -107.38341 | 27911 ft | 361 kts | 299° |
| 2026-05-04 01:33 | 35.33473 | -107.40829 | 27923 ft | 352 kts | 299° |
| 2026-05-04 01:33 | 35.34841 | -107.43306 | 27916 ft | 350 kts | 299° |
| 2026-05-04 01:33 | 35.36214 | -107.45782 | 27917 ft | 349 kts | 299° |
| 2026-05-04 01:34 | 35.37580 | -107.48244 | 27916 ft | 349 kts | 299° |
| 2026-05-04 01:34 | 35.38937 | -107.50686 | 27923 ft | 345 kts | 299° |
| 2026-05-04 01:34 | 35.40287 | -107.53112 | 27923 ft | 344 kts | 299° |
| 2026-05-04 01:34 | 35.41635 | -107.55532 | 27928 ft | 344 kts | 299° |
| 2026-05-04 01:35 | 35.42982 | -107.57951 | 27927 ft | 343 kts | 299° |
| 2026-05-04 01:35 | 35.44328 | -107.60365 | 27939 ft | 343 kts | 299° |
| 2026-05-04 01:35 | 35.45670 | -107.62752 | 27925 ft | 343 kts | 299° |
| 2026-05-04 01:35 | 35.47025 | -107.65153 | 27927 ft | 342 kts | 299° |
| 2026-05-04 01:36 | 35.48384 | -107.67560 | 27920 ft | 342 kts | 299° |
| 2026-05-04 01:36 | 35.49737 | -107.69966 | 27925 ft | 343 kts | 299° |
| 2026-05-04 01:36 | 35.51094 | -107.72376 | 27922 ft | 343 kts | 299° |
| 2026-05-04 01:36 | 35.52449 | -107.74782 | 27907 ft | 343 kts | 300° |
| 2026-05-04 01:37 | 35.53806 | -107.77208 | 27929 ft | 346 kts | 299° |
| 2026-05-04 01:37 | 35.55168 | -107.79646 | 27920 ft | 346 kts | 299° |
| 2026-05-04 01:37 | 35.56531 | -107.82087 | 27919 ft | 347 kts | 299° |
| 2026-05-04 01:37 | 35.57898 | -107.84534 | 27920 ft | 347 kts | 299° |
| 2026-05-04 01:38 | 35.59262 | -107.86976 | 27925 ft | 347 kts | 299° |
| 2026-05-04 01:38 | 35.60383 | -107.89557 | 27920 ft | 340 kts | 285° |
| 2026-05-04 01:38 | 35.60779 | -107.92395 | 27924 ft | 337 kts | 270° |
| 2026-05-04 01:38 | 35.60735 | -107.95272 | 27922 ft | 337 kts | 269° |
| 2026-05-04 01:39 | 35.60669 | -107.98150 | 27920 ft | 337 kts | 269° |
| 2026-05-04 01:39 | 35.60599 | -108.01029 | 27924 ft | 337 kts | 269° |
| 2026-05-04 01:39 | 35.60528 | -108.03875 | 27919 ft | 337 kts | 268° |
| 2026-05-04 01:39 | 35.60456 | -108.06751 | 27919 ft | 337 kts | 269° |
| 2026-05-04 01:40 | 35.60388 | -108.09639 | 27920 ft | 337 kts | 269° |
| 2026-05-04 01:40 | 35.60322 | -108.12516 | 27932 ft | 337 kts | 268° |
| 2026-05-04 01:40 | 35.60253 | -108.15391 | 27921 ft | 337 kts | 268° |
| 2026-05-04 01:40 | 35.60180 | -108.18272 | 27909 ft | 336 kts | 268° |
| 2026-05-04 01:41 | 35.60108 | -108.21146 | 27910 ft | 336 kts | 268° |
| 2026-05-04 01:41 | 35.60036 | -108.24017 | 27912 ft | 336 kts | 268° |
| 2026-05-04 01:41 | 35.59964 | -108.26887 | 27911 ft | 336 kts | 268° |
| 2026-05-04 01:41 | 35.59894 | -108.29724 | 27912 ft | 336 kts | 268° |
| 2026-05-04 01:42 | 35.59823 | -108.32594 | 27912 ft | 336 kts | 268° |
| 2026-05-04 01:42 | 35.59749 | -108.35457 | 27912 ft | 336 kts | 268° |
| 2026-05-04 01:42 | 35.59674 | -108.38326 | 27912 ft | 336 kts | 268° |
| 2026-05-04 01:42 | 35.59598 | -108.41201 | 27912 ft | 336 kts | 268° |
| 2026-05-04 01:43 | 35.59524 | -108.44063 | 27890 ft | 336 kts | 268° |
| 2026-05-04 01:43 | 35.59449 | -108.46930 | 27904 ft | 336 kts | 268° |
| 2026-05-04 01:43 | 35.59372 | -108.49835 | 27903 ft | 336 kts | 268° |
| 2026-05-04 01:43 | 35.59296 | -108.52664 | 27897 ft | 336 kts | 268° |
| 2026-05-04 01:44 | 35.59218 | -108.55532 | 27905 ft | 336 kts | 268° |
| 2026-05-04 01:44 | 35.59139 | -108.58407 | 27891 ft | 336 kts | 268° |
| 2026-05-04 01:44 | 35.59061 | -108.61275 | 27897 ft | 336 kts | 268° |
| 2026-05-04 01:44 | 35.58979 | -108.64143 | 27897 ft | 336 kts | 268° |
| 2026-05-04 01:45 | 35.58895 | -108.67018 | 27897 ft | 336 kts | 268° |
| 2026-05-04 01:45 | 35.58811 | -108.69889 | 27893 ft | 336 kts | 268° |
| 2026-05-04 01:45 | 35.58645 | -108.75634 | 28085 ft | 336 kts | 268° |
| 2026-05-04 01:46 | 35.58478 | -108.81365 | 28080 ft | 335 kts | 268° |
| 2026-05-04 01:46 | 35.58310 | -108.87051 | 28076 ft | 335 kts | 268° |
| 2026-05-04 01:47 | 35.58134 | -108.92780 | 28050 ft | 335 kts | 268° |
| 2026-05-04 01:47 | 35.57961 | -108.98495 | 28084 ft | 335 kts | 268° |
| 2026-05-04 01:48 | 35.57784 | -109.04209 | 28092 ft | 334 kts | 268° |
| 2026-05-04 01:48 | 35.57602 | -109.09925 | 28089 ft | 335 kts | 268° |
| 2026-05-04 01:49 | 35.57420 | -109.15645 | 28082 ft | 336 kts | 268° |
| 2026-05-04 01:49 | 35.57230 | -109.21393 | 28061 ft | 336 kts | 268° |
| 2026-05-04 01:50 | 35.57039 | -109.27136 | 28030 ft | 336 kts | 268° |
| 2026-05-04 01:50 | 35.56843 | -109.32883 | 28007 ft | 336 kts | 268° |
| 2026-05-04 01:51 | 35.56744 | -109.35743 | 27997 ft | 336 kts | 268° |
| 2026-05-04 01:51 | 35.56646 | -109.38616 | 27983 ft | 336 kts | 268° |
| 2026-05-04 01:51 | 35.56549 | -109.41483 | 27954 ft | 336 kts | 268° |
| 2026-05-04 01:51 | 35.56451 | -109.44350 | 27940 ft | 336 kts | 268° |
| 2026-05-04 01:52 | 35.56352 | -109.47223 | 27923 ft | 336 kts | 268° |
| 2026-05-04 01:52 | 35.56251 | -109.50056 | 27914 ft | 336 kts | 268° |
| 2026-05-04 01:52 | 35.56150 | -109.52923 | 27900 ft | 336 kts | 268° |
| 2026-05-04 01:52 | 35.56049 | -109.55788 | 27899 ft | 336 kts | 268° |
| 2026-05-04 01:53 | 35.55948 | -109.58656 | 27897 ft | 336 kts | 268° |
| 2026-05-04 01:53 | 35.55844 | -109.61529 | 27906 ft | 336 kts | 268° |
| 2026-05-04 01:53 | 35.55737 | -109.64389 | 27906 ft | 336 kts | 268° |
| 2026-05-04 01:53 | 35.55629 | -109.67262 | 27891 ft | 336 kts | 268° |
| 2026-05-04 01:54 | 35.55522 | -109.70128 | 27893 ft | 336 kts | 268° |
| 2026-05-04 01:54 | 35.55416 | -109.72994 | 27891 ft | 336 kts | 268° |
| 2026-05-04 01:54 | 35.55309 | -109.75867 | 27892 ft | 336 kts | 268° |
| 2026-05-04 01:54 | 35.55203 | -109.78728 | 27891 ft | 336 kts | 268° |
| 2026-05-04 01:55 | 35.55096 | -109.81597 | 27876 ft | 336 kts | 267° |
| 2026-05-04 01:55 | 35.54987 | -109.84426 | 27878 ft | 335 kts | 267° |
| 2026-05-04 01:55 | 35.54878 | -109.87305 | 27880 ft | 344 kts | 267° |
| 2026-05-04 01:55 | 35.54763 | -109.90332 | 27880 ft | 363 kts | 267° |
| 2026-05-04 01:56 | 35.54683 | -109.92446 | 27901 ft | 364 kts | 267° |
| 2026-05-04 01:56 | 35.54567 | -109.95441 | 27872 ft | 344 kts | 267° |
| 2026-05-04 01:56 | 35.54453 | -109.98315 | 27885 ft | 340 kts | 267° |
| 2026-05-04 01:56 | 35.54336 | -110.01201 | 27880 ft | 337 kts | 267° |
| 2026-05-04 01:57 | 35.54221 | -110.04080 | 27881 ft | 336 kts | 267° |
| 2026-05-04 01:57 | 35.54108 | -110.06944 | 27866 ft | 336 kts | 267° |
| 2026-05-04 01:57 | 35.53995 | -110.09810 | 27869 ft | 336 kts | 267° |
| 2026-05-04 01:57 | 35.53882 | -110.12674 | 27868 ft | 336 kts | 267° |
| 2026-05-04 01:58 | 35.53767 | -110.15534 | 27874 ft | 335 kts | 267° |
| 2026-05-04 01:58 | 35.53649 | -110.18397 | 28197 ft | 337 kts | 267° |
| 2026-05-04 01:58 | 35.53530 | -110.21279 | 28783 ft | 342 kts | 267° |
| 2026-05-04 01:58 | 35.53406 | -110.24255 | 28916 ft | 356 kts | 267° |
| 2026-05-04 01:59 | 35.53278 | -110.27338 | 29053 ft | 367 kts | 267° |
| 2026-05-04 01:59 | 35.53145 | -110.30516 | 29291 ft | 375 kts | 267° |
| 2026-05-04 01:59 | 35.53012 | -110.33692 | 29680 ft | 379 kts | 267° |
| 2026-05-04 01:59 | 35.52872 | -110.36931 | 30207 ft | 378 kts | 267° |
| 2026-05-04 02:00 | 35.52731 | -110.40148 | 30787 ft | 376 kts | 267° |
| 2026-05-04 02:00 | 35.52592 | -110.43356 | 31359 ft | 375 kts | 267° |
| 2026-05-04 02:00 | 35.52453 | -110.46555 | 31748 ft | 374 kts | 267° |
| 2026-05-04 02:00 | 35.52317 | -110.49739 | 31828 ft | 372 kts | 267° |
| 2026-05-04 02:01 | 35.52048 | -110.56046 | 31841 ft | 368 kts | 267° |
| 2026-05-04 02:01 | 35.51772 | -110.62314 | 31837 ft | 368 kts | 267° |
| 2026-05-04 02:02 | 35.51493 | -110.68536 | 31837 ft | 368 kts | 267° |
| 2026-05-04 02:02 | 35.51208 | -110.74802 | 31829 ft | 368 kts | 267° |
| 2026-05-04 02:03 | 35.50915 | -110.81083 | 31820 ft | 368 kts | 266° |
| 2026-05-04 02:03 | 35.50624 | -110.87357 | 31827 ft | 368 kts | 266° |
| 2026-05-04 02:04 | 35.50336 | -110.93641 | 31824 ft | 368 kts | 266° |
| 2026-05-04 02:04 | 35.50037 | -110.99920 | 31826 ft | 369 kts | 266° |
| 2026-05-04 02:05 | 35.49736 | -111.06166 | 31846 ft | 369 kts | 266° |
| 2026-05-04 02:05 | 35.49433 | -111.12447 | 31838 ft | 369 kts | 266° |
| 2026-05-04 02:06 | 35.49121 | -111.18729 | 31836 ft | 369 kts | 266° |
| 2026-05-04 02:06 | 35.48807 | -111.25036 | 31831 ft | 370 kts | 266° |
| 2026-05-04 02:07 | 35.48487 | -111.31330 | 31864 ft | 370 kts | 266° |
| 2026-05-04 02:07 | 35.48166 | -111.37640 | 31856 ft | 370 kts | 266° |
| 2026-05-04 02:08 | 35.47849 | -111.43949 | 31883 ft | 370 kts | 266° |
| 2026-05-04 02:08 | 35.47528 | -111.50251 | 31883 ft | 370 kts | 266° |